Fairbanks, AK

10:49 AM AKDT on September 30, 2014 (GMT -0800)
AKDOT 14th Avenue @ Eielson Street | Change Station
CLOSE
Current Station
Personal Weather Station
Location: Fairbanks, AK
Elevation: 482 ft
Nearby Weather Stations

Elev 482 ft 64.84 °N, 147.71 °W | Updated 57 minutes ago

Light Rain
Light Rain Snow Mist
33 °F
Feels Like 33 °F
N
2
Wind Variable Wind from NE
Gusts 7.0 mph

Today
High -- | Low -- °F
--% Chance of Precip.
Yesterday
High -- | Low -- °F
Precip. -- in
7:58 AM 7:21 PM
Waxing Crescent, 39% visible
Pressure 30.08 in
Visibility 1.5 miles
Clouds Mostly Cloudy 700 ft
Overcast 1800 ft
Windchill 33 °F
Dew Point 32 °F
Humidity 95%
Rainfall -999.00 in
Snow Depth 2 in , 1 in , 0 in
UV 0 out of 12
Pollen Not available.
Air Quality Not available.
Flu Activity Not available.
SPECI PAFB 301828Z 24012KT 1 1/2SM -RASN BR BKN007 OVC018 01/00 A3008

More Conditions Fewer Conditions

Pressure 30.08 in
Visibility 1.5 miles
Clouds Mostly Cloudy 700 ft
Overcast 1800 ft
Windchill 33 °F
Dew Point 32 °F
Humidity 95%
Rainfall -999.00 in
Snow Depth 2 in , 1 in , 0 in
UV 0 out of 12
Pollen Not available.
Air Quality Not available.
Flu Activity Not available.
SPECI PAFB 301828Z 24012KT 1 1/2SM -RASN BR BKN007 OVC018 01/00 A3008

More Conditions Fewer Conditions

10-Day Weather Forecast

Almanac

Astronomy

Sep. 30, 2014 Rise Set
Actual Time 7:58 AM AKDT 7:21 PM AKDT
Civil Twilight 7:09 AM AKDT 8:10 PM AKDT
Nautical Twilight 6:11 AM AKDT 9:08 PM AKDT
Astronomical Twilight 5:07 AM AKDT 10:10 PM AKDT
Moon 4:05 PM AKDT 10:13 PM AKDT
Length of Visible Light 13h 01m
Length of Day
11h 23m
Tomorrow will be 6m 39s shorter.
Waxing Crescent, 39% of the Moon is Illuminated
Today
Waxing Crescent
Oct 1
First Quarter
Oct 8
Full
Oct 15
Last Quarter
Oct 23
New

Today's Extremes

State Highs State Lows

Community

WunderPhotos

Upload Photos

1,757,712 photos uploaded!

Nearby

Snow Depth

Station Depth Elevation
Munson Ridge 2 in 3100 ft
MF Bradley River 1 in 2300 ft
Upper Tsaina River 0 in 1750 ft
Coldfoot 3 in 1040 ft
Point Mackenzie 1 in 200 ft

Earthquake Activity

City Distance Mag. Time & Date
No recent earthquake activity has been reported nearby.
Minimum magnitude displayed is 2.5.

Coastal Water Temperatures

Place Temperature
No Stations Reporting

Nearby Weather Stations